Time;durP1;ratioP1;P1;durP2;ratioP2;P2;SDS_P1;SDS_P2;PMS_P1;PMS_P2;Temp;Humidity;BMP_temperature;BMP_pressure;BME280_temperature;BME280_humidity;BME280_pressure;Samples;Min_cycle;Max_cycle;Signal;HPM_P1;HPM_P2
2022/04/24 00:00:33;;;;;;;4.57;4.18;;;;;;;11.40;56.83;100490.38;5076424;28;20067;-79
2022/04/24 00:02:58;;;;;;;5.38;4.88;;;;;;;11.36;56.94;100490.63;5041427;28;20100;-79
2022/04/24 00:05:24;;;;;;;5.00;4.60;;;;;;;11.32;57.03;100495.16;5057262;28;20047;-79
2022/04/24 00:07:49;;;;;;;4.82;4.47;;;;;;;11.29;56.99;100490.91;5076038;28;20035;-79
2022/04/24 00:10:15;;;;;;;4.38;4.07;;;;;;;11.26;57.48;100485.84;5057723;28;20040;-79
2022/04/24 00:12:40;;;;;;;10.10;3.97;;;;;;;11.24;57.25;100492.94;5055321;28;20072;-79
2022/04/24 00:15:06;;;;;;;4.72;4.40;;;;;;;11.22;57.39;100486.03;5048698;28;20078;-79
2022/04/24 00:17:32;;;;;;;6.57;4.53;;;;;;;11.20;57.54;100491.34;5029376;28;20032;-79
2022/04/24 00:19:57;;;;;;;4.72;4.30;;;;;;;11.16;57.64;100489.81;5054807;28;20466;-79
2022/04/24 00:22:22;;;;;;;7.63;4.18;;;;;;;11.09;57.94;100491.88;5056511;28;20044;-79
2022/04/24 00:24:48;;;;;;;4.75;4.25;;;;;;;11.07;57.94;100495.50;5054377;28;20040;-79
2022/04/24 00:27:13;;;;;;;4.72;4.43;;;;;;;11.07;58.35;100495.50;5043660;28;20055;-79
2022/04/24 00:29:39;;;;;;;4.72;4.32;;;;;;;10.99;58.43;100495.00;5073393;28;20067;-79
2022/04/24 00:32:05;;;;;;;4.65;4.35;;;;;;;10.94;58.78;100487.38;5044622;28;20243;-79
2022/04/24 00:34:30;;;;;;;4.60;4.20;;;;;;;10.93;59.07;100490.91;5043623;28;20043;-79
2022/04/24 00:36:56;;;;;;;4.90;4.40;;;;;;;10.89;59.36;100484.97;5062924;28;20024;-79
2022/04/24 00:39:21;;;;;;;4.70;4.30;;;;;;;10.84;59.74;100486.97;5044969;28;20052;-79
2022/04/24 00:41:51;;;;;;;4.65;4.35;;;;;;;10.79;59.96;100483.72;5045788;28;20082;-79
2022/04/24 00:44:17;;;;;;;5.07;4.60;;;;;;;10.79;60.17;100480.25;5062006;28;20312;-79
2022/04/24 00:47:00;;;;;;;4.85;4.40;;;;;;;10.76;60.36;100481.25;5079588;28;20119;-79
2022/04/24 00:49:26;;;;;;;5.57;4.38;;;;;;;10.76;60.25;100486.47;5061209;28;20040;-79
2022/04/24 00:51:52;;;;;;;5.00;4.50;;;;;;;10.67;60.88;100487.75;5062158;28;20032;-79
2022/04/24 00:54:18;;;;;;;5.03;4.72;;;;;;;10.64;61.03;100487.03;5061669;28;20111;-79
2022/04/24 00:56:44;;;;;;;5.10;4.70;;;;;;;10.59;60.93;100478.56;5062172;28;20045;-79
2022/04/24 00:59:11;;;;;;;5.40;5.00;;;;;;;10.60;61.11;100482.88;5061713;28;20264;-79
2022/04/24 01:05:16;;;;;;;5.65;5.25;;;;;;;10.51;61.57;100471.94;5058858;28;20340;-79
2022/04/24 01:07:41;;;;;;;6.85;4.97;;;;;;;10.47;61.60;100475.59;5052624;28;20040;-79
2022/04/24 01:10:07;;;;;;;5.28;4.88;;;;;;;10.48;61.60;100476.47;5079436;28;20485;-79
2022/04/24 01:12:32;;;;;;;5.60;5.10;;;;;;;10.45;61.89;100479.22;5078961;28;20140;-79
2022/04/24 01:14:58;;;;;;;5.75;5.35;;;;;;;10.41;61.78;100478.50;5049473;28;20321;-79
2022/04/24 01:17:23;;;;;;;5.90;5.43;;;;;;;10.37;62.09;100482.19;5036685;28;20045;-79
2022/04/24 01:19:49;;;;;;;5.63;5.20;;;;;;;10.38;62.32;100479.47;5030343;28;20052;-79
2022/04/24 01:22:17;;;;;;;5.18;4.78;;;;;;;10.35;62.50;100479.63;5042336;28;20043;-79
2022/04/24 01:24:43;;;;;;;6.40;5.80;;;;;;;10.27;62.57;100476.47;5065530;28;20097;-79
2022/04/24 01:27:09;;;;;;;5.63;5.22;;;;;;;10.23;62.94;100477.53;5076101;28;20044;-79
2022/04/24 01:29:34;;;;;;;6.68;5.45;;;;;;;10.19;63.23;100483.81;5031240;28;20025;-79
2022/04/24 01:31:59;;;;;;;6.88;5.30;;;;;;;10.17;63.28;100476.03;5043831;28;20037;-79
2022/04/24 01:34:25;;;;;;;6.10;5.57;;;;;;;10.14;63.54;100476.16;5079006;28;20048;-79
2022/04/24 01:36:50;;;;;;;5.75;5.18;;;;;;;10.15;63.17;100471.78;5078984;28;20033;-79
2022/04/24 01:39:16;;;;;;;5.88;5.47;;;;;;;10.13;63.10;100477.09;5066980;28;20053;-79
2022/04/24 01:41:42;;;;;;;6.25;5.75;;;;;;;10.11;63.20;100478.91;5056574;28;20244;-79
2022/04/24 01:44:07;;;;;;;8.02;5.22;;;;;;;10.10;63.63;100485.06;5043953;28;20025;-79
2022/04/24 01:46:32;;;;;;;6.30;5.70;;;;;;;10.07;63.71;100482.59;5078573;28;20033;-79
2022/04/24 01:48:58;;;;;;;7.18;6.00;;;;;;;10.12;63.58;100487.63;5057513;28;20029;-79
2022/04/24 01:51:23;;;;;;;6.43;5.93;;;;;;;10.08;64.09;100483.47;5052467;28;20112;-79
2022/04/24 01:53:49;;;;;;;8.13;6.43;;;;;;;10.12;64.08;100490.25;5078878;28;20329;-79
2022/04/24 01:56:14;;;;;;;7.00;6.50;;;;;;;10.10;64.24;100487.69;5060442;28;20116;-79
2022/04/24 01:58:40;;;;;;;7.05;6.43;;;;;;;10.06;64.73;100490.50;5078563;28;20024;-79
2022/04/24 02:01:06;;;;;;;6.78;6.18;;;;;;;10.02;65.34;100488.94;5078763;28;20044;-79
2022/04/24 02:03:33;;;;;;;6.85;6.25;;;;;;;10.03;65.47;100488.88;5078547;28;20205;-79
2022/04/24 02:05:59;;;;;;;7.53;6.85;;;;;;;10.04;65.49;100489.72;5078100;28;20044;-79
2022/04/24 02:08:25;;;;;;;8.68;6.47;;;;;;;10.01;66.14;100489.88;5060143;28;20229;-79
2022/04/24 02:10:51;;;;;;;7.97;7.32;;;;;;;9.88;66.81;100494.78;5060445;28;20062;-79
2022/04/24 02:13:17;;;;;;;8.45;7.50;;;;;;;9.86;67.01;100499.22;5078183;28;20035;-79
2022/04/24 02:15:43;;;;;;;9.02;7.65;;;;;;;9.79;67.35;100490.81;5077980;28;20044;-79
2022/04/24 02:18:09;;;;;;;9.27;8.38;;;;;;;9.82;67.65;100498.50;5077733;28;20043;-79
2022/04/24 02:20:37;;;;;;;11.52;8.80;;;;;;;9.79;67.98;100501.25;5060543;28;20033;-79
2022/04/24 02:23:02;;;;;;;9.90;9.00;;;;;;;9.74;68.14;100498.84;5044631;28;20289;-80
2022/04/24 02:25:29;;;;;;;9.25;8.20;;;;;;;9.77;68.22;100503.09;5058299;28;20376;-80
2022/04/24 02:27:56;;;;;;;9.15;8.25;;;;;;;9.78;68.33;100499.56;5077980;28;20056;-80
2022/04/24 02:30:27;;;;;;;10.30;9.30;;;;;;;9.71;68.71;100496.34;5059628;28;20024;-80
2022/04/24 02:32:56;;;;;;;10.95;9.95;;;;;;;9.68;68.98;100496.50;5059523;28;20032;-80
2022/04/24 02:35:21;;;;;;;11.32;9.68;;;;;;;9.65;69.19;100498.38;5077175;28;20036;-80
2022/04/24 02:37:47;;;;;;;10.85;9.43;;;;;;;9.65;69.32;100496.59;5077181;28;20047;-80
2022/04/24 02:40:19;;;;;;;13.50;10.05;;;;;;;9.63;69.29;100501.06;5058229;28;20063;-80
2022/04/24 02:42:45;;;;;;;10.93;9.50;;;;;;;9.58;69.82;100498.63;5040940;28;20040;-80
2022/04/24 02:45:10;;;;;;;11.65;9.77;;;;;;;9.48;70.41;100504.28;5049841;28;20107;-80
2022/04/24 02:47:38;;;;;;;14.63;10.52;;;;;;;9.45;70.84;100494.00;5024854;28;20099;-80
2022/04/24 02:50:04;;;;;;;13.50;9.68;;;;;;;9.42;70.74;100500.16;5058758;28;20040;-80
2022/04/24 02:52:29;;;;;;;12.98;10.63;;;;;;;9.39;70.93;100497.72;5076424;28;20056;-79
2022/04/24 02:54:55;;;;;;;11.20;9.68;;;;;;;9.41;70.91;100503.72;5059874;28;20039;-79
2022/04/24 02:57:20;;;;;;;13.45;10.85;;;;;;;9.36;71.19;100503.88;5058699;28;20044;-79
2022/04/24 02:59:49;;;;;;;12.93;10.13;;;;;;;9.41;71.01;100503.72;5058078;28;20244;-79
2022/04/24 03:02:14;;;;;;;13.30;11.03;;;;;;;9.32;71.59;100496.25;5069899;28;20209;-79
2022/04/24 03:04:40;;;;;;;11.25;9.90;;;;;;;9.28;71.57;100503.38;5056740;28;20386;-79
2022/04/24 03:07:06;;;;;;;15.65;10.68;;;;;;;9.31;71.34;100498.00;5041550;28;20047;-79
2022/04/24 03:09:32;;;;;;;12.65;10.13;;;;;;;9.23;71.67;100498.31;5058661;28;20283;-79
2022/04/24 03:11:58;;;;;;;11.45;10.20;;;;;;;9.21;72.02;100505.38;5058502;28;20082;-79
2022/04/24 03:14:23;;;;;;;11.40;10.20;;;;;;;9.16;72.26;100502.09;5026132;28;20328;-79
2022/04/24 03:16:49;;;;;;;10.88;9.23;;;;;;;9.17;72.13;100500.34;5076382;28;20234;-79
2022/04/24 03:19:14;;;;;;;14.20;10.82;;;;;;;9.20;71.91;100505.44;5076384;28;20250;-79
2022/04/24 03:21:39;;;;;;;13.20;10.93;;;;;;;9.16;72.54;100502.09;5076889;28;20112;-79
2022/04/24 03:24:05;;;;;;;11.60;10.40;;;;;;;9.15;72.65;100505.63;5058545;28;20047;-79
2022/04/24 03:26:31;;;;;;;14.25;10.00;;;;;;;9.14;72.37;100501.31;5041249;28;20040;-79
2022/04/24 03:28:57;;;;;;;11.52;10.32;;;;;;;9.07;72.54;100505.06;5042246;28;20037;-79
2022/04/24 03:31:23;;;;;;;13.27;10.18;;;;;;;9.03;73.00;100506.94;5058085;28;20040;-78
2022/04/24 03:33:49;;;;;;;14.55;10.02;;;;;;;9.09;72.70;100500.63;5058921;28;20063;-79
2022/04/24 03:36:15;;;;;;;11.02;9.93;;;;;;;9.07;72.57;100499.84;5041063;28;20040;-79
2022/04/24 03:38:40;;;;;;;10.65;9.55;;;;;;;9.06;72.92;100497.28;5024980;28;20052;-79
2022/04/24 03:41:06;;;;;;;10.73;9.63;;;;;;;9.03;73.03;100493.88;5041452;28;20044;-79
2022/04/24 03:43:31;;;;;;;12.02;10.27;;;;;;;9.05;72.79;100495.59;5057799;28;20232;-79
2022/04/24 03:45:56;;;;;;;11.25;10.10;;;;;;;8.99;73.14;100491.47;5042014;28;20313;-79
2022/04/24 03:48:22;;;;;;;15.63;9.88;;;;;;;8.90;73.35;100489.22;5057959;28;20032;-79
2022/04/24 03:50:47;;;;;;;12.52;9.50;;;;;;;8.91;73.26;100489.16;5025168;28;20108;-79
2022/04/24 03:53:12;;;;;;;11.02;9.32;;;;;;;8.86;73.29;100488.50;5075588;28;20043;-78
2022/04/24 03:55:38;;;;;;;14.88;9.77;;;;;;;8.86;73.54;100485.00;5040509;28;20107;-78
2022/04/24 03:58:04;;;;;;;10.88;9.73;;;;;;;8.89;73.46;100492.75;5058231;28;20063;-79
2022/04/24 04:00:29;;;;;;;10.48;8.95;;;;;;;8.82;73.44;100486.91;5076133;28;20085;-78
2022/04/24 04:02:55;;;;;;;11.93;9.70;;;;;;;8.81;73.59;100493.03;5034496;28;20268;-78
2022/04/24 04:05:22;;;;;;;14.02;9.40;;;;;;;8.81;73.50;100499.09;5021570;28;20375;-79
2022/04/24 04:07:47;;;;;;;11.88;9.27;;;;;;;8.79;73.49;100495.72;5040657;28;20356;-78
2022/04/24 04:10:13;;;;;;;11.57;9.13;;;;;;;8.86;73.22;100496.34;5075729;28;20050;-78
2022/04/24 04:12:38;;;;;;;12.30;9.55;;;;;;;8.79;73.44;100495.72;5041203;28;20020;-79
2022/04/24 04:15:05;;;;;;;13.20;9.38;;;;;;;8.76;73.69;100495.81;5053156;28;20368;-79
2022/04/24 04:17:32;;;;;;;10.20;9.15;;;;;;;8.70;73.61;100497.84;5042140;28;20103;-79
2022/04/24 04:19:58;;;;;;;10.80;9.45;;;;;;;8.63;74.06;100497.22;5074320;28;20039;-78
2022/04/24 04:22:23;;;;;;;11.00;9.02;;;;;;;8.60;74.20;100492.97;5056082;28;20044;-79
2022/04/24 04:24:48;;;;;;;10.95;9.82;;;;;;;8.60;73.88;100503.41;5031131;28;20055;-79
2022/04/24 04:27:14;;;;;;;10.77;9.20;;;;;;;8.57;73.97;100511.34;5056189;28;20403;-78
2022/04/24 04:29:39;;;;;;;10.00;9.00;;;;;;;8.60;74.04;100502.53;5061449;28;20108;-78
2022/04/24 04:32:05;;;;;;;11.27;9.20;;;;;;;8.61;74.10;100506.88;5037006;28;20033;-79
2022/04/24 04:34:30;;;;;;;10.38;8.90;;;;;;;8.58;74.17;100506.97;5067750;28;20044;-79
2022/04/24 04:36:55;;;;;;;9.43;8.52;;;;;;;8.57;74.09;100510.50;5053862;28;20033;-78
2022/04/24 04:39:21;;;;;;;10.15;8.25;;;;;;;8.63;73.83;100508.50;5033457;28;20285;-79
2022/04/24 04:41:46;;;;;;;9.25;8.35;;;;;;;8.61;73.73;100515.53;5048394;28;20328;-78
2022/04/24 04:44:12;;;;;;;10.10;8.52;;;;;;;8.60;73.68;100518.19;5056595;28;20355;-79
2022/04/24 04:46:38;;;;;;;9.20;8.35;;;;;;;8.55;73.91;100521.00;5074337;28;20363;-79
2022/04/24 04:49:03;;;;;;;9.20;8.40;;;;;;;8.52;74.09;100512.44;5056251;28;20047;-79
2022/04/24 04:51:29;;;;;;;9.55;8.45;;;;;;;8.51;74.22;100515.94;5050557;28;20060;-79
2022/04/24 04:53:55;;;;;;;12.82;8.52;;;;;;;8.49;74.33;100520.38;5052205;28;20040;-79
2022/04/24 04:56:21;;;;;;;12.68;8.13;;;;;;;8.43;74.41;100521.44;5055712;28;20036;-78
2022/04/24 04:58:47;;;;;;;9.20;8.30;;;;;;;8.39;74.44;100531.09;5073812;28;20072;-78
2022/04/24 05:01:12;;;;;;;8.35;7.60;;;;;;;8.38;74.42;100523.34;5058327;28;20040;-78
2022/04/24 05:03:38;;;;;;;10.98;8.40;;;;;;;8.37;74.73;100529.47;5053848;28;20475;-79
2022/04/24 05:06:03;;;;;;;9.38;7.85;;;;;;;8.36;74.63;100528.59;5076568;28;20040;-78
2022/04/24 05:08:29;;;;;;;9.90;8.90;;;;;;;8.30;74.62;100535.81;5046363;28;20308;-78
2022/04/24 05:10:54;;;;;;;10.68;8.13;;;;;;;8.31;74.83;100538.34;5073804;28;20336;-78
2022/04/24 05:13:20;;;;;;;14.02;8.02;;;;;;;8.33;74.68;100535.69;5075770;28;20048;-79
2022/04/24 05:15:46;;;;;;;9.23;8.23;;;;;;;8.34;74.82;100543.47;5061533;28;20463;-78
2022/04/24 05:18:11;;;;;;;8.32;7.63;;;;;;;8.32;74.79;100545.28;5040287;28;20445;-79
2022/04/24 05:20:37;;;;;;;9.57;7.72;;;;;;;8.32;74.73;100545.28;5059155;28;20037;-79
2022/04/24 05:23:04;;;;;;;9.10;7.47;;;;;;;8.34;74.81;100542.63;5072543;28;20344;-79
2022/04/24 05:25:30;;;;;;;8.10;7.30;;;;;;;8.38;74.46;100547.66;5065815;28;20224;-78
2022/04/24 05:27:56;;;;;;;7.95;7.22;;;;;;;8.38;74.34;100554.66;5063462;28;20036;-78
2022/04/24 05:30:23;;;;;;;10.32;7.05;;;;;;;8.38;74.36;100549.44;5076847;28;20335;-78
2022/04/24 05:32:50;;;;;;;8.25;7.30;;;;;;;8.39;74.37;100551.16;5042949;28;20046;-78
2022/04/24 05:35:16;;;;;;;12.05;6.97;;;;;;;8.40;74.27;100555.44;5076406;28;20051;-79
2022/04/24 05:37:42;;;;;;;8.10;7.30;;;;;;;8.43;74.28;100555.38;5077010;28;20348;-78
2022/04/24 05:40:08;;;;;;;7.53;6.78;;;;;;;8.45;74.01;100559.63;5055081;28;20326;-78
2022/04/24 05:42:33;;;;;;;12.10;7.45;;;;;;;8.50;74.11;100561.22;5056187;28;20033;-79
2022/04/24 05:45:04;;;;;;;9.85;7.40;;;;;;;8.50;73.83;100562.06;5053128;28;20068;-79
2022/04/24 05:47:30;;;;;;;7.63;6.80;;;;;;;8.52;74.00;100556.81;5047305;28;20093;-78
2022/04/24 05:49:56;;;;;;;9.15;7.18;;;;;;;8.53;73.80;100568.94;5038992;28;20055;-78
2022/04/24 05:52:21;;;;;;;6.93;6.32;;;;;;;8.55;73.36;100569.72;5055321;28;20321;-78
2022/04/24 05:54:47;;;;;;;7.22;6.53;;;;;;;8.57;73.43;100571.38;5054197;28;20052;-79
2022/04/24 05:57:12;;;;;;;7.32;6.72;;;;;;;8.59;73.26;100568.72;5037220;28;20056;-78
2022/04/24 05:59:38;;;;;;;11.77;6.80;;;;;;;8.60;73.13;100568.66;5036921;28;20119;-78
2022/04/24 06:02:03;;;;;;;7.13;6.53;;;;;;;8.62;73.03;100572.06;5047275;28;20388;-79
2022/04/24 06:04:29;;;;;;;7.60;6.25;;;;;;;8.66;72.97;100575.41;5052951;28;20044;-78
2022/04/24 06:06:54;;;;;;;6.72;6.13;;;;;;;8.66;72.98;100572.81;5035879;28;20044;-78
2022/04/24 06:09:20;;;;;;;7.32;6.72;;;;;;;8.72;72.59;100577.78;5021245;28;20045;-79
2022/04/24 06:11:45;;;;;;;7.03;5.82;;;;;;;8.75;72.17;100575.06;5055175;28;20057;-78
2022/04/24 06:14:10;;;;;;;7.07;6.38;;;;;;;8.80;72.63;100580.97;5055876;28;20051;-78
2022/04/24 06:16:36;;;;;;;6.85;6.22;;;;;;;8.81;72.44;100585.28;5037198;28;20284;-79
2022/04/24 06:19:02;;;;;;;6.85;6.25;;;;;;;8.82;72.21;100586.13;5071556;28;20108;-78
2022/04/24 06:21:27;;;;;;;8.73;6.68;;;;;;;8.86;71.98;100586.84;5045403;28;20036;-78
2022/04/24 06:23:52;;;;;;;7.45;6.75;;;;;;;8.88;71.96;100588.53;5051046;28;20340;-79
2022/04/24 06:26:18;;;;;;;7.88;7.07;;;;;;;8.89;71.91;100584.97;5054337;28;20252;-78
2022/04/24 06:28:43;;;;;;;7.05;6.55;;;;;;;8.92;71.71;100581.44;5050226;28;20541;-79
2022/04/24 06:31:08;;;;;;;7.50;6.43;;;;;;;8.96;71.71;100589.06;5049690;28;20049;-78
2022/04/24 06:33:34;;;;;;;7.20;6.50;;;;;;;9.00;71.50;100590.69;5048564;28;20375;-78
2022/04/24 06:36:00;;;;;;;8.52;6.20;;;;;;;9.02;71.23;100587.97;5053892;28;20041;-78
2022/04/24 06:38:25;;;;;;;6.80;6.28;;;;;;;9.09;71.37;100599.91;5053798;28;20104;-79
2022/04/24 06:40:50;;;;;;;7.38;6.60;;;;;;;9.14;70.88;100589.28;5056800;28;20047;-78
2022/04/24 06:43:16;;;;;;;7.28;6.57;;;;;;;9.15;70.86;100604.03;5057139;28;20428;-79
2022/04/24 06:45:43;;;;;;;6.68;6.05;;;;;;;9.18;70.92;100586.47;5073826;28;20036;-78
2022/04/24 06:48:16;;;;;;;10.48;6.35;;;;;;;9.26;70.72;100588.81;5050920;28;20091;-78
2022/04/24 06:50:44;;;;;;;7.60;6.63;;;;;;;9.28;70.71;100596.56;5065592;28;20040;-78
2022/04/24 06:53:14;;;;;;;6.07;5.57;;;;;;;9.33;70.64;100589.41;5041268;28;20128;-78
2022/04/24 06:55:42;;;;;;;7.07;6.38;;;;;;;9.38;70.59;100592.69;5053438;28;20044;-78
2022/04/24 06:58:10;;;;;;;7.15;6.50;;;;;;;9.45;70.51;100595.94;5048865;28;20040;-79
2022/04/24 07:00:38;;;;;;;7.07;6.10;;;;;;;9.50;70.21;100600.06;5074738;28;20067;-79
2022/04/24 07:03:14;;;;;;;7.18;6.18;;;;;;;9.51;69.85;100599.13;5075172;28;20064;-78
2022/04/24 07:05:40;;;;;;;6.95;6.30;;;;;;;9.56;69.86;100601.56;5057001;28;20029;-79
2022/04/24 07:08:06;;;;;;;10.02;6.47;;;;;;;9.59;69.79;100598.84;5057247;28;20024;-79
2022/04/24 07:10:33;;;;;;;6.70;6.10;;;;;;;9.64;69.48;100596.03;5037144;28;20020;-79
2022/04/24 07:12:58;;;;;;;6.93;6.22;;;;;;;9.71;69.60;100606.16;5041654;28;20044;-79
2022/04/24 07:15:24;;;;;;;6.50;5.88;;;;;;;9.80;69.13;100613.66;5065910;28;20099;-79
2022/04/24 07:17:51;;;;;;;6.82;6.03;;;;;;;9.83;68.59;100603.97;5056860;28;20035;-79
2022/04/24 07:20:18;;;;;;;7.10;6.10;;;;;;;9.87;68.54;100608.16;5053019;28;20481;-79
2022/04/24 07:22:52;;;;;;;5.97;5.50;;;;;;;9.94;68.57;100610.47;5049462;28;20036;-79
2022/04/24 07:25:21;;;;;;;6.43;5.82;;;;;;;9.99;68.16;100602.44;5066840;28;20037;-79
2022/04/24 07:27:46;;;;;;;6.32;5.72;;;;;;;10.03;68.17;100611.84;5071734;28;20052;-79
2022/04/24 07:30:13;;;;;;;6.35;5.70;;;;;;;10.05;67.93;100612.63;5067587;28;20037;-78
2022/04/24 07:32:59;;;;;;;7.47;6.18;;;;;;;10.12;67.65;100611.47;5029170;28;20228;-79
2022/04/24 07:35:30;;;;;;;8.05;5.82;;;;;;;10.18;67.85;100613.78;5034566;28;20395;-79
2022/04/24 07:37:56;;;;;;;7.20;6.22;;;;;;;10.21;67.19;100606.75;5069289;28;20233;-79
2022/04/24 07:40:23;;;;;;;8.07;5.75;;;;;;;10.22;66.99;100613.69;5053283;28;20041;-79
2022/04/24 07:43:10;;;;;;;6.40;5.90;;;;;;;10.25;66.95;100617.00;5071796;28;20040;-79
2022/04/24 07:45:39;;;;;;;9.30;6.32;;;;;;;10.25;66.68;100618.78;5074018;28;20051;-79
2022/04/24 07:48:07;;;;;;;8.65;6.40;;;;;;;10.29;66.42;100621.19;5074137;28;20138;-79
2022/04/24 07:50:35;;;;;;;7.72;6.63;;;;;;;10.39;66.48;100613.84;5072432;28;20399;-79
2022/04/24 07:53:02;;;;;;;7.75;6.03;;;;;;;10.41;65.87;100624.25;5066089;28;20044;-79
2022/04/24 07:55:28;;;;;;;6.18;5.68;;;;;;;10.42;65.49;100618.09;5074179;28;20103;-79
2022/04/24 07:57:54;;;;;;;6.80;6.10;;;;;;;10.48;65.62;100618.69;5074845;28;20222;-79
2022/04/24 08:00:22;;;;;;;6.50;6.00;;;;;;;10.50;65.61;100624.69;5035942;28;20029;-79
2022/04/24 08:03:00;;;;;;;11.18;6.57;;;;;;;10.56;65.86;100624.41;5072198;28;20255;-79
2022/04/24 08:05:37;;;;;;;7.33;5.90;;;;;;;10.66;65.60;100630.13;5074800;28;20104;-79
2022/04/24 08:08:23;;;;;;;11.63;6.07;;;;;;;10.76;64.50;100625.31;5074233;28;20258;-79
2022/04/24 08:10:57;;;;;;;6.03;5.57;;;;;;;10.88;64.58;100629.16;5053213;28;20042;-79
2022/04/24 08:13:24;;;;;;;6.07;5.50;;;;;;;10.93;64.57;100635.00;5054894;28;20036;-79
2022/04/24 08:15:50;;;;;;;6.22;5.72;;;;;;;10.93;64.20;100637.63;5053773;28;20052;-79
2022/04/24 08:18:16;;;;;;;6.57;5.90;;;;;;;10.91;63.96;100637.72;5072676;28;20329;-79
2022/04/24 08:20:42;;;;;;;9.90;6.05;;;;;;;10.95;63.80;100635.78;5044121;28;20066;-79
2022/04/24 08:23:10;;;;;;;6.53;5.78;;;;;;;11.00;63.02;100638.22;5065770;28;20275;-79
2022/04/24 08:25:36;;;;;;;6.43;5.93;;;;;;;11.03;63.89;100643.31;5070628;28;20229;-79
2022/04/24 08:28:06;;;;;;;6.35;5.85;;;;;;;11.09;63.42;100645.66;5052987;28;20031;-79
2022/04/24 08:30:33;;;;;;;7.05;5.60;;;;;;;11.07;63.29;100650.13;5050669;28;20037;-79
2022/04/24 08:32:58;;;;;;;7.80;6.45;;;;;;;11.09;63.17;100650.91;5068397;28;20040;-79
2022/04/24 08:35:24;;;;;;;6.15;5.65;;;;;;;11.19;62.51;100656.56;5055570;28;20046;-79
2022/04/24 08:37:49;;;;;;;7.97;5.90;;;;;;;11.19;62.86;100651.31;5074877;28;20060;-79
2022/04/24 08:40:17;;;;;;;6.20;5.63;;;;;;;11.27;63.23;100652.66;5041448;28;20059;-79
2022/04/24 08:42:43;;;;;;;6.00;5.55;;;;;;;11.37;63.08;100660.09;5060167;28;20350;-79
2022/04/24 08:45:13;;;;;;;8.07;6.20;;;;;;;11.41;63.28;100653.81;5077865;28;20036;-79
2022/04/24 08:47:39;;;;;;;10.02;6.05;;;;;;;11.50;63.37;100662.09;5073429;28;20308;-79
2022/04/24 08:50:06;;;;;;;7.72;5.75;;;;;;;11.53;62.45;100653.22;5072135;28;20028;-79
2022/04/24 08:52:31;;;;;;;6.47;5.60;;;;;;;11.62;62.87;100655.38;5075458;28;20044;-79
2022/04/24 08:54:58;;;;;;;6.30;5.80;;;;;;;11.68;61.37;100656.91;5070890;28;20033;-79
2022/04/24 08:57:30;;;;;;;6.03;5.63;;;;;;;11.70;62.19;100663.75;5046042;28;20025;-79
2022/04/24 09:00:00;;;;;;;6.85;5.80;;;;;;;11.79;61.42;100657.22;5060871;28;20024;-79
2022/04/24 09:02:25;;;;;;;7.05;5.43;;;;;;;11.85;61.69;100656.06;5076872;28;20024;-79
2022/04/24 09:04:52;;;;;;;6.65;5.90;;;;;;;11.88;61.45;100659.38;5054576;28;20134;-79
2022/04/24 09:07:19;;;;;;;5.80;5.30;;;;;;;12.07;60.98;100656.72;5043319;28;20036;-79
2022/04/24 09:09:48;;;;;;;6.47;5.82;;;;;;;12.11;60.16;100657.41;5059045;28;20399;-79
2022/04/24 09:12:15;;;;;;;10.85;5.88;;;;;;;12.17;60.58;100653.63;5047843;28;20032;-79
2022/04/24 09:14:41;;;;;;;8.40;5.68;;;;;;;12.21;60.15;100653.41;5068849;28;20263;-79
2022/04/24 09:17:15;;;;;;;6.32;5.82;;;;;;;12.23;60.44;100669.09;5059317;28;20238;-79
2022/04/24 09:19:41;;;;;;;6.70;6.13;;;;;;;12.26;60.27;100663.69;5073128;28;20036;-79
2022/04/24 09:22:08;;;;;;;6.35;5.88;;;;;;;12.26;60.17;100661.03;5042849;28;20181;-79
2022/04/24 09:24:46;;;;;;;7.47;5.85;;;;;;;12.30;60.37;100662.63;5067567;28;20107;-79
2022/04/24 09:27:23;;;;;;;9.30;5.88;;;;;;;12.33;60.65;100661.59;5065090;28;20103;-79
2022/04/24 09:29:57;;;;;;;7.75;5.90;;;;;;;12.36;60.26;100667.53;5059242;28;20059;-79
2022/04/24 09:32:24;;;;;;;6.20;5.60;;;;;;;12.44;60.39;100673.28;5071255;28;20263;-79
2022/04/24 09:34:51;;;;;;;6.28;5.50;;;;;;;12.52;60.05;100670.25;5077235;28;20356;-79
2022/04/24 09:37:17;;;;;;;6.72;5.93;;;;;;;12.53;59.53;100677.19;5070336;28;20191;-79
2022/04/24 09:39:43;;;;;;;5.95;5.55;;;;;;;12.54;59.44;100668.38;5067241;28;20297;-79
2022/04/24 09:42:14;;;;;;;7.80;5.80;;;;;;;12.58;58.75;100675.16;5072572;28;20036;-79
2022/04/24 09:44:52;;;;;;;6.00;5.50;;;;;;;12.57;59.18;100677.88;5057920;28;20532;-79
2022/04/24 09:47:26;;;;;;;6.95;6.22;;;;;;;12.63;59.05;100670.53;5076440;28;20044;-79
2022/04/24 09:49:53;;;;;;;6.20;5.70;;;;;;;12.76;58.75;100670.75;5076413;28;20032;-79
2022/04/24 09:52:24;;;;;;;7.18;6.32;;;;;;;12.75;58.57;100674.31;5056988;28;20100;-79
2022/04/24 09:54:51;;;;;;;6.32;5.72;;;;;;;12.76;58.80;100673.38;5059095;28;20032;-79
2022/04/24 09:57:18;;;;;;;8.27;5.95;;;;;;;12.78;59.09;100675.91;5076224;28;20025;-79
2022/04/24 09:59:46;;;;;;;7.00;5.80;;;;;;;12.87;59.54;100681.53;5051344;28;20037;-79
2022/04/24 10:02:14;;;;;;;6.55;5.93;;;;;;;13.00;58.20;100667.75;5054708;28;20048;-79
2022/04/24 10:04:40;;;;;;;11.40;5.70;;;;;;;13.10;57.94;100668.97;5076452;28;20339;-79
2022/04/24 10:07:12;;;;;;;8.25;6.10;;;;;;;13.15;58.23;100676.59;5057427;28;20036;-79
2022/04/24 10:09:45;;;;;;;6.72;6.03;;;;;;;13.14;58.71;100681.00;5067337;28;20229;-79
2022/04/24 10:12:15;;;;;;;6.82;5.63;;;;;;;13.27;58.81;100672.44;5076035;28;20032;-79
2022/04/24 10:15:01;;;;;;;7.82;5.50;;;;;;;13.35;58.40;100675.53;5075642;28;20039;-79
2022/04/24 10:17:48;;;;;;;7.28;6.10;;;;;;;13.32;58.41;100671.31;5067447;28;20024;-79
2022/04/24 10:20:44;;;;;;;7.82;5.97;;;;;;;13.43;58.69;100675.97;5064425;28;20033;-79
2022/04/24 10:23:11;;;;;;;6.57;6.00;;;;;;;13.38;58.03;100678.00;5057528;28;20098;-79
2022/04/24 10:25:42;;;;;;;7.30;6.15;;;;;;;13.41;58.18;100669.94;5076995;28;20037;-79
2022/04/24 10:28:18;;;;;;;12.50;6.25;;;;;;;13.47;57.13;100676.66;5070287;28;20024;-79
2022/04/24 10:30:56;;;;;;;6.47;6.03;;;;;;;13.57;57.55;100676.06;5076075;28;20036;-79
2022/04/24 10:33:24;;;;;;;7.30;6.25;;;;;;;13.61;57.02;100684.63;5059225;28;20029;-79
2022/04/24 10:35:52;;;;;;;6.90;6.20;;;;;;;13.47;57.48;100695.91;5075158;28;20068;-79
2022/04/24 10:38:21;;;;;;;6.80;6.10;;;;;;;13.43;58.08;100678.59;5074197;28;20094;-79
2022/04/24 10:40:58;;;;;;;9.15;6.10;;;;;;;13.53;58.47;100689.44;5073860;28;20367;-79
2022/04/24 10:43:25;;;;;;;8.63;6.20;;;;;;;13.59;57.40;100679.44;5044174;28;20036;-79
2022/04/24 10:45:51;;;;;;;8.00;6.05;;;;;;;13.66;57.50;100687.84;5074414;28;20067;-79
2022/04/24 10:48:17;;;;;;;10.55;6.55;;;;;;;13.58;57.16;100695.31;5056592;28;20032;-79
2022/04/24 10:50:52;;;;;;;12.70;6.72;;;;;;;13.60;57.67;100696.91;5056477;28;20028;-79
2022/04/24 10:53:19;;;;;;;8.75;6.22;;;;;;;13.60;56.87;100685.56;5052385;28;20040;-79
2022/04/24 10:55:44;;;;;;;11.43;7.35;;;;;;;13.63;56.62;100688.03;5063391;28;20040;-79
2022/04/24 10:58:10;;;;;;;6.65;6.05;;;;;;;13.66;56.65;100685.22;5037205;28;20041;-79
2022/04/24 11:00:38;;;;;;;6.68;6.10;;;;;;;13.68;56.61;100674.59;5068173;28;20077;-80
2022/04/24 11:03:13;;;;;;;7.75;6.25;;;;;;;13.73;56.14;100681.28;5029288;28;20036;-79
2022/04/24 11:05:44;;;;;;;6.22;5.63;;;;;;;13.66;55.97;100679.97;5056706;28;20059;-79
2022/04/24 11:08:17;;;;;;;6.97;6.30;;;;;;;13.77;56.46;100671.44;5074124;28;20032;-79
2022/04/24 11:10:46;;;;;;;6.55;5.95;;;;;;;13.80;55.66;100664.22;5055342;28;20296;-79
2022/04/24 11:13:13;;;;;;;12.93;6.40;;;;;;;13.92;56.57;100665.31;5067476;28;20412;-79
2022/04/24 11:15:44;;;;;;;12.90;6.05;;;;;;;14.07;55.66;100668.84;5040084;28;20602;-79
2022/04/24 11:18:21;;;;;;;10.93;6.38;;;;;;;14.15;55.29;100671.88;5068172;28;20047;-79
2022/04/24 11:21:03;;;;;;;6.53;5.68;;;;;;;14.16;55.17;100670.94;5075062;28;20020;-79
2022/04/24 11:23:30;;;;;;;8.70;5.95;;;;;;;14.24;55.19;100678.38;5071894;28;20322;-79
2022/04/24 11:25:58;;;;;;;10.40;6.03;;;;;;;14.22;54.98;100675.00;5075314;28;20142;-79
2022/04/24 11:28:39;;;;;;;8.48;6.32;;;;;;;14.21;54.98;100665.41;5056337;28;20028;-79
2022/04/24 11:31:13;;;;;;;8.27;6.53;;;;;;;14.26;54.33;100673.91;5057064;28;20231;-79